Terminal Aerodrome Forecast
Issued by NWS

Home | Current Version | Previous Version | Text Only | Print | Product List | Glossary Off
Versions: 1 2 3 4 5 6 7 8 9 10 11 12 13 14 15 16 17 18 19 20 21 22 23 24 25 26 27 28 29

994
FTUS42 KMHX 011726
TAFOAJ
TAF
KOAJ 011726Z 0118/0218 19010G17KT P6SM VCSH SCT025 BKN040
      TEMPO 0118/0120 5SM SHRA BKN030
     FM012200 19007KT P6SM BKN040
     FM020600 21005KT P6SM SCT007 BKN030
     FM021300 22009KT P6SM VCSH SCT025 BKN040
      AMD LTD TO CLD VIS AND WIND=

USA.gov is the U.S. government's official web portal to all federal, state and local government web resources and services.